Time;durP1;ratioP1;P1;durP2;ratioP2;P2;SDS_P1;SDS_P2;PMS_P1;PMS_P2;Temp;Humidity;BMP_temperature;BMP_pressure;BME280_temperature;BME280_humidity;BME280_pressure;Samples;Min_cycle;Max_cycle;Signal;HPM_P1;HPM_P2
2022/03/26 00:01:50;;;;;;;165.37;80.50;;;;;;;3.22;55.92;101456.33;2027352;87;29443;-67
2022/03/26 00:04:51;;;;;;;163.82;79.17;;;;;;;3.22;56.15;101453.69;2027646;87;27759;-69
2022/03/26 00:07:53;;;;;;;167.53;82.05;;;;;;;3.24;56.01;101457.64;2026764;87;28638;-70
2022/03/26 00:10:55;;;;;;;160.10;82.30;;;;;;;3.23;56.03;101447.48;2026940;87;31071;-69
2022/03/26 00:13:57;;;;;;;172.57;83.78;;;;;;;3.21;56.15;101451.92;2055252;86;33541;-68
2022/03/26 00:17:00;;;;;;;162.53;82.35;;;;;;;3.20;56.21;101450.16;2060982;86;29296;-70
2022/03/26 00:20:02;;;;;;;182.20;91.50;;;;;;;3.17;56.11;101447.05;2061285;86;27651;-69
2022/03/26 00:23:04;;;;;;;174.65;89.50;;;;;;;3.16;56.32;101452.35;2057680;86;28728;-66
2022/03/26 00:26:07;;;;;;;179.12;87.82;;;;;;;3.14;56.43;101446.17;2059751;86;31817;-67
2022/03/26 00:29:10;;;;;;;165.32;86.53;;;;;;;3.12;56.63;101444.86;2047494;86;33696;-66
2022/03/26 00:32:12;;;;;;;175.30;85.97;;;;;;;3.12;56.72;101443.96;2022398;87;29343;-67
2022/03/26 00:35:13;;;;;;;175.40;83.40;;;;;;;3.12;56.74;101441.31;2024173;87;27541;-69
2022/03/26 00:38:17;;;;;;;166.37;83.30;;;;;;;3.10;56.93;101438.68;2023111;88;27762;-68
2022/03/26 00:41:19;;;;;;;161.75;80.07;;;;;;;3.10;57.00;101435.13;2024029;87;31212;-66
2022/03/26 00:44:21;;;;;;;170.02;85.38;;;;;;;3.08;57.03;101434.25;2056392;86;33564;-69
2022/03/26 00:47:23;;;;;;;159.87;81.25;;;;;;;3.06;57.09;101431.61;2057688;85;29361;-68
2022/03/26 00:50:24;;;;;;;168.07;83.03;;;;;;;3.02;57.13;101433.39;2057622;86;27736;-66
2022/03/26 00:53:26;;;;;;;157.75;82.55;;;;;;;3.00;57.20;101431.17;2043096;86;29266;-69
2022/03/26 00:56:28;;;;;;;165.82;85.17;;;;;;;2.99;57.25;101437.78;2023558;88;32087;-69
2022/03/26 00:59:30;;;;;;;161.20;82.60;;;;;;;2.97;57.39;101432.95;2023753;87;32984;-70
2022/03/26 01:02:32;;;;;;;175.82;85.50;;;;;;;2.95;57.36;101434.71;2053579;86;29364;-70
2022/03/26 01:05:35;;;;;;;177.53;85.30;;;;;;;2.92;57.58;101430.28;2042513;86;27681;-70
2022/03/26 01:08:36;;;;;;;174.12;87.47;;;;;;;2.89;57.70;101423.23;2023892;86;29688;-70
2022/03/26 01:11:41;;;;;;;180.52;85.25;;;;;;;2.87;57.60;101425.45;2022136;87;32306;-72
2022/03/26 01:14:43;;;;;;;168.20;86.30;;;;;;;2.84;57.90;101411.75;2023548;87;32961;-71
2022/03/26 01:17:45;;;;;;;178.78;84.10;;;;;;;2.80;57.75;101412.66;2024452;87;30076;-72
2022/03/26 01:20:47;;;;;;;162.57;82.17;;;;;;;2.78;57.86;101416.16;2024327;87;28424;-73
2022/03/26 01:23:49;;;;;;;167.20;81.80;;;;;;;2.73;57.88;101406.45;2024454;87;28855;-71
2022/03/26 01:26:51;;;;;;;174.55;82.37;;;;;;;2.71;57.93;101408.23;2024267;87;31228;-67
2022/03/26 01:29:53;;;;;;;172.57;83.97;;;;;;;2.68;57.96;101403.36;2022850;86;33205;-68
2022/03/26 01:32:55;;;;;;;175.47;85.72;;;;;;;2.64;58.09;101400.30;2022789;87;29318;-67
2022/03/26 01:35:57;;;;;;;161.62;83.03;;;;;;;2.62;58.12;101396.76;2024159;88;28158;-69
2022/03/26 01:38:59;;;;;;;159.52;83.25;;;;;;;2.57;58.10;101394.98;2025959;86;29423;-67
2022/03/26 01:42:06;;;;;;;160.22;80.72;;;;;;;2.53;58.15;101398.50;2023064;86;31881;-66
2022/03/26 01:45:13;;;;;;;154.38;78.67;;;;;;;2.49;58.22;101393.20;2022810;87;32954;-69
2022/03/26 01:48:15;;;;;;;156.57;79.00;;;;;;;2.46;58.33;101392.77;2024225;87;29327;-67
2022/03/26 01:51:18;;;;;;;157.35;78.57;;;;;;;2.43;58.40;101399.37;2023857;87;27719;-69
2022/03/26 01:54:19;;;;;;;163.92;80.67;;;;;;;2.40;58.48;101391.43;2024298;87;28714;-67
2022/03/26 01:57:21;;;;;;;166.47;79.97;;;;;;;2.38;58.52;101409.05;2024341;87;31644;-66
2022/03/26 02:00:23;;;;;;;163.80;79.27;;;;;;;2.34;58.78;101397.59;2023782;86;33027;-67
2022/03/26 02:03:25;;;;;;;164.75;78.37;;;;;;;2.32;58.79;101398.02;2022608;88;29377;-68
2022/03/26 02:06:34;;;;;;;152.95;74.60;;;;;;;2.29;58.82;101395.37;2022025;88;28081;-68
2022/03/26 02:09:36;;;;;;;157.52;75.47;;;;;;;2.26;59.20;101391.39;2023430;86;28109;-65
2022/03/26 02:12:38;;;;;;;151.10;75.35;;;;;;;2.23;59.21;101392.73;2022322;87;31841;-71
2022/03/26 02:15:40;;;;;;;144.68;75.32;;;;;;;2.23;59.34;101397.56;2024256;87;33628;-67
2022/03/26 02:18:43;;;;;;;151.63;77.45;;;;;;;2.21;59.38;101398.45;2023784;87;29345;-67
2022/03/26 02:21:47;;;;;;;157.47;74.95;;;;;;;2.18;59.38;101395.34;2025304;87;27696;-66
2022/03/26 02:24:49;;;;;;;140.60;73.37;;;;;;;2.16;59.67;101389.16;2027420;87;28691;-65
2022/03/26 02:27:51;;;;;;;153.30;75.57;;;;;;;2.15;59.52;101394.03;2028075;87;31896;-65
2022/03/26 02:30:53;;;;;;;159.05;75.45;;;;;;;2.13;59.64;101397.97;2041559;86;33182;-68
2022/03/26 02:33:55;;;;;;;141.03;74.82;;;;;;;2.09;59.67;101392.22;2039978;86;29319;-67
2022/03/26 02:36:58;;;;;;;143.43;72.62;;;;;;;2.07;59.82;101394.43;2026113;87;27638;-68
2022/03/26 02:40:04;;;;;;;144.62;72.17;;;;;;;2.03;59.96;101390.91;2027487;87;28848;-66
2022/03/26 02:43:06;;;;;;;135.75;70.17;;;;;;;2.02;60.42;101384.27;2026799;87;31208;-67
2022/03/26 02:46:08;;;;;;;141.77;72.82;;;;;;;1.98;60.55;101382.06;2027459;87;33746;-66
2022/03/26 02:49:10;;;;;;;139.40;67.58;;;;;;;1.93;60.58;101379.41;2027490;87;30080;-71
2022/03/26 02:52:11;;;;;;;134.22;69.15;;;;;;;1.90;60.82;101384.68;2027553;87;27735;-65
2022/03/26 02:55:13;;;;;;;136.07;67.97;;;;;;;1.91;60.84;101384.23;2027302;87;28637;-66
2022/03/26 02:58:15;;;;;;;133.60;67.85;;;;;;;1.91;60.97;101383.80;2027202;87;31028;-69
2022/03/26 03:01:17;;;;;;;136.60;67.05;;;;;;;1.90;60.88;101384.68;2028470;86;32944;-66
2022/03/26 03:04:23;;;;;;;137.68;69.17;;;;;;;1.89;60.90;101388.20;2025675;87;28831;-67
2022/03/26 03:07:24;;;;;;;136.12;65.17;;;;;;;1.87;61.09;101382.02;2025414;87;27714;-65
2022/03/26 03:10:27;;;;;;;130.97;63.90;;;;;;;1.82;61.07;101383.33;2027157;87;28670;-66
2022/03/26 03:13:29;;;;;;;122.35;62.85;;;;;;;1.81;61.46;101372.77;2026693;86;31036;-65
2022/03/26 03:16:31;;;;;;;133.87;62.60;;;;;;;1.78;61.54;101368.34;2026002;87;32986;-67
2022/03/26 03:19:33;;;;;;;129.12;64.00;;;;;;;1.79;61.39;101367.92;2027631;87;29336;-65
2022/03/26 03:22:37;;;;;;;129.25;62.20;;;;;;;1.77;61.33;101370.53;2026657;87;27736;-67
2022/03/26 03:25:38;;;;;;;123.35;62.93;;;;;;;1.76;61.56;101364.80;2027366;87;29575;-65
2022/03/26 03:28:40;;;;;;;124.92;60.67;;;;;;;1.76;61.60;101375.37;2027488;87;31061;-66
2022/03/26 03:31:47;;;;;;;130.35;64.12;;;;;;;1.74;61.60;101366.55;2059658;86;33763;-69
2022/03/26 03:34:45;;;;;;;133.20;63.92;;;;;;;1.75;62.00;101367.45;2030885;86;29962;-66
2022/03/26 03:37:47;;;;;;;118.28;59.50;;;;;;;1.73;61.83;101368.78;2027958;86;27713;-70
2022/03/26 03:40:49;;;;;;;125.65;64.95;;;;;;;1.71;61.75;101370.95;2027564;87;28797;-68
2022/03/26 03:43:51;;;;;;;130.47;62.80;;;;;;;1.69;61.96;101372.28;2026011;87;31005;-68
2022/03/26 03:46:53;;;;;;;126.20;63.87;;;;;;;1.67;61.84;101369.61;2026014;87;33691;-66
2022/03/26 03:49:55;;;;;;;133.35;65.42;;;;;;;1.64;62.03;101369.63;2025762;87;30142;-66
2022/03/26 03:52:56;;;;;;;120.75;63.87;;;;;;;1.63;62.07;101365.21;2025734;87;27732;-70
2022/03/26 03:55:58;;;;;;;126.40;66.22;;;;;;;1.62;62.16;101363.86;2025995;87;28656;-66
2022/03/26 03:59:00;;;;;;;133.03;63.48;;;;;;;1.58;62.07;101359.02;2031870;86;31016;-71
2022/03/26 04:02:01;;;;;;;114.60;61.55;;;;;;;1.57;62.29;101355.93;2039776;85;32950;-67
2022/03/26 04:05:04;;;;;;;128.62;62.83;;;;;;;1.55;62.27;101355.03;2026804;87;29329;-66
2022/03/26 04:08:06;;;;;;;125.38;61.85;;;;;;;1.54;62.48;101355.04;2027824;87;28228;-67
2022/03/26 04:11:08;;;;;;;126.80;59.40;;;;;;;1.51;62.56;101359.84;2027646;87;28687;-69
2022/03/26 04:14:10;;;;;;;114.95;57.83;;;;;;;1.48;62.87;101352.80;2027577;87;31858;-68
2022/03/26 04:17:13;;;;;;;110.55;56.92;;;;;;;1.45;62.83;101353.23;2027822;87;32949;-71
2022/03/26 04:20:14;;;;;;;111.50;56.88;;;;;;;1.44;63.01;101356.75;2027602;87;29340;-67
2022/03/26 04:23:17;;;;;;;106.75;54.65;;;;;;;1.44;62.97;101362.89;2026922;87;27627;-67
2022/03/26 04:26:19;;;;;;;108.63;56.05;;;;;;;1.43;63.30;101354.53;2027245;87;29690;-65
2022/03/26 04:29:22;;;;;;;103.00;52.90;;;;;;;1.44;63.61;101351.47;2035836;86;31030;-65
2022/03/26 04:32:24;;;;;;;106.25;54.03;;;;;;;1.44;63.59;101352.79;2060648;86;33005;-65
2022/03/26 04:35:26;;;;;;;111.22;53.52;;;;;;;1.45;63.73;101351.91;2060928;86;30116;-66
2022/03/26 04:38:27;;;;;;;102.15;53.60;;;;;;;1.47;63.75;101355.00;2061081;86;27588;-66
2022/03/26 04:41:29;;;;;;;99.65;51.98;;;;;;;1.46;63.77;101351.91;2060987;85;28645;-67
2022/03/26 04:44:31;;;;;;;101.95;49.85;;;;;;;1.46;63.71;101350.59;2061188;86;31028;-68
2022/03/26 04:47:33;;;;;;;110.45;52.88;;;;;;;1.46;63.60;101351.91;2060923;86;32995;-67
2022/03/26 04:50:35;;;;;;;95.77;52.20;;;;;;;1.46;63.72;101353.23;2060970;86;29315;-66
2022/03/26 04:53:36;;;;;;;100.62;51.00;;;;;;;1.48;63.94;101358.09;2044153;85;28059;-67
2022/03/26 04:56:38;;;;;;;120.00;55.73;;;;;;;1.50;63.98;101364.68;2026222;86;28645;-67
2022/03/26 04:59:40;;;;;;;104.43;53.75;;;;;;;1.54;64.26;101362.51;2028828;86;31209;-66
2022/03/26 05:02:42;;;;;;;103.70;53.23;;;;;;;1.59;64.02;101359.88;2031829;86;32482;-66
2022/03/26 05:05:44;;;;;;;103.20;51.48;;;;;;;1.62;64.14;101356.84;2027249;87;29332;-67
2022/03/26 05:08:48;;;;;;;105.67;55.67;;;;;;;1.67;64.20;101356.40;2027256;87;27746;-68
2022/03/26 05:11:50;;;;;;;105.60;54.77;;;;;;;1.73;64.07;101358.22;2027234;87;29567;-65
2022/03/26 05:14:52;;;;;;;104.07;52.95;;;;;;;1.80;64.08;101353.38;2026257;87;31248;-65
2022/03/26 05:17:56;;;;;;;101.65;53.63;;;;;;;1.89;64.12;101348.56;2027365;87;33747;-64
2022/03/26 05:20:58;;;;;;;96.90;52.53;;;;;;;2.00;64.07;101352.98;2027353;87;29972;-64
2022/03/26 05:24:00;;;;;;;100.75;54.03;;;;;;;2.12;64.38;101349.95;2024735;87;27836;-65
2022/03/26 05:27:03;;;;;;;103.05;52.08;;;;;;;2.26;64.23;101346.02;2024193;86;29886;-65
2022/03/26 05:30:07;;;;;;;90.77;49.38;;;;;;;2.42;64.35;101347.36;2024505;86;31868;-68
2022/03/26 05:33:09;;;;;;;92.62;48.98;;;;;;;2.58;64.49;101345.59;2032217;86;33757;-67
2022/03/26 05:36:11;;;;;;;88.72;48.13;;;;;;;2.76;64.47;101342.08;2037990;86;30194;-68
2022/03/26 05:39:13;;;;;;;95.20;48.68;;;;;;;2.95;64.35;101347.36;2042750;86;27870;-67
2022/03/26 05:42:15;;;;;;;91.40;48.70;;;;;;;3.12;64.58;101346.00;2027279;87;28836;-67
2022/03/26 05:45:17;;;;;;;99.60;50.12;;;;;;;3.29;64.55;101352.14;2011286;87;30893;-66
2022/03/26 05:48:19;;;;;;;93.55;49.88;;;;;;;3.49;64.50;101352.08;2028665;86;33024;-66
2022/03/26 05:51:20;;;;;;;105.00;52.45;;;;;;;3.69;64.55;101342.31;2012887;88;29430;-66
2022/03/26 05:54:22;;;;;;;100.12;52.30;;;;;;;3.91;64.53;101348.39;2064752;86;27709;-67
2022/03/26 05:57:24;;;;;;;89.87;50.73;;;;;;;4.13;64.43;101354.91;2067282;86;29444;-67
2022/03/26 06:00:26;;;;;;;94.10;49.03;;;;;;;4.33;64.32;101345.03;2050349;86;31717;-67
2022/03/26 06:03:28;;;;;;;86.57;49.53;;;;;;;4.54;64.17;101347.09;1998152;89;33865;-69
2022/03/26 06:06:30;;;;;;;96.42;51.15;;;;;;;4.77;63.94;101346.05;1998185;89;29519;-70
2022/03/26 06:09:31;;;;;;;94.00;48.63;;;;;;;4.96;63.72;101344.99;2022644;86;27817;-67
2022/03/26 06:12:35;;;;;;;96.42;51.30;;;;;;;5.14;63.54;101341.69;2021544;87;29289;-69
2022/03/26 06:15:37;;;;;;;92.55;51.30;;;;;;;5.35;63.35;101346.35;2021422;88;31881;-69
2022/03/26 06:18:39;;;;;;;95.62;52.95;;;;;;;5.61;63.18;101338.08;2021484;88;33146;-70
2022/03/26 06:21:41;;;;;;;93.82;54.65;;;;;;;5.96;62.95;101339.88;2021620;88;29326;-67
2022/03/26 06:24:43;;;;;;;99.30;53.40;;;;;;;6.34;62.66;101337.12;2021271;86;28239;-66
2022/03/26 06:27:47;;;;;;;104.85;55.55;;;;;;;6.75;62.32;101332.02;2021613;88;28715;-68
2022/03/26 06:30:49;;;;;;;86.08;48.75;;;;;;;7.17;62.00;101336.18;2023572;86;31844;-67
2022/03/26 06:33:51;;;;;;;86.20;47.20;;;;;;;7.61;61.49;101328.22;2023159;87;33981;-66
2022/03/26 06:36:53;;;;;;;78.92;45.85;;;;;;;8.07;61.00;101327.66;2022923;88;29366;-66
2022/03/26 06:39:55;;;;;;;90.30;44.80;;;;;;;8.53;60.48;101330.18;2023411;88;27645;-67
2022/03/26 06:42:56;;;;;;;77.70;43.55;;;;;;;8.98;60.11;101328.61;2023378;88;28635;-66
2022/03/26 06:45:58;;;;;;;77.05;44.35;;;;;;;9.49;59.57;101331.70;2023281;88;31193;-66
2022/03/26 06:49:00;;;;;;;74.03;42.17;;;;;;;9.99;58.89;101326.66;2023075;88;32877;-67
2022/03/26 06:52:02;;;;;;;76.70;41.95;;;;;;;10.46;58.07;101321.20;2023296;88;29323;-67
2022/03/26 06:55:05;;;;;;;69.62;39.53;;;;;;;10.88;57.74;101313.97;2021624;87;27762;-68
2022/03/26 06:58:07;;;;;;;68.62;40.90;;;;;;;11.32;57.15;101312.47;2021720;86;28368;-67
2022/03/26 07:01:09;;;;;;;67.10;39.88;;;;;;;11.76;56.41;101307.23;1990898;89;31035;-66
2022/03/26 07:04:11;;;;;;;72.53;40.20;;;;;;;12.16;55.82;101313.73;1991458;88;32956;-66
2022/03/26 07:07:14;;;;;;;64.45;39.55;;;;;;;12.56;55.32;101317.98;2021610;88;29471;-66
2022/03/26 07:10:16;;;;;;;67.55;38.05;;;;;;;12.97;54.47;101314.47;2022847;88;27730;-68
2022/03/26 07:13:18;;;;;;;63.52;37.45;;;;;;;13.35;53.98;101314.57;2010332;87;28674;-68
2022/03/26 07:16:20;;;;;;;59.60;36.53;;;;;;;13.73;53.47;101322.35;1999410;87;31669;-68
2022/03/26 07:19:22;;;;;;;56.92;35.88;;;;;;;14.07;52.84;101314.87;2013147;88;32962;-67
2022/03/26 07:22:25;;;;;;;58.30;35.70;;;;;;;14.41;52.51;101315.08;2009788;87;28899;-69
2022/03/26 07:25:27;;;;;;;63.28;36.80;;;;;;;14.82;51.94;101312.13;2011379;88;27727;-69
2022/03/26 07:28:29;;;;;;;51.37;32.78;;;;;;;15.19;51.26;101303.97;2012205;87;29497;-68
2022/03/26 07:31:31;;;;;;;47.23;30.82;;;;;;;15.54;50.97;101299.85;2062503;86;31858;-67
2022/03/26 07:34:32;;;;;;;47.03;29.20;;;;;;;15.88;49.54;101289.91;2061003;86;33606;-69
2022/03/26 07:37:34;;;;;;;50.17;29.50;;;;;;;16.18;49.41;101285.06;2060732;85;29327;-69
2022/03/26 07:40:36;;;;;;;49.65;28.38;;;;;;;16.54;48.94;101288.41;2060937;86;27535;-69
2022/03/26 07:43:41;;;;;;;40.73;26.70;;;;;;;16.92;48.31;101283.02;2060695;86;29467;-70
2022/03/26 07:46:46;;;;;;;42.73;27.35;;;;;;;17.24;47.53;101277.48;2062201;86;31925;-69
2022/03/26 07:49:48;;;;;;;40.65;26.25;;;;;;;17.48;46.98;101287.27;2062253;86;32408;-68
2022/03/26 07:52:50;;;;;;;43.83;26.93;;;;;;;17.73;46.71;101277.09;2013893;87;30143;-72
2022/03/26 07:55:52;;;;;;;35.13;23.65;;;;;;;18.01;46.15;101269.04;2062516;85;27757;-68
2022/03/26 07:58:54;;;;;;;43.50;25.30;;;;;;;18.26;45.11;101259.30;2024542;87;28711;-67
2022/03/26 08:01:56;;;;;;;41.68;24.50;;;;;;;18.50;44.57;101252.70;2076035;84;30534;-72
2022/03/26 08:04:57;;;;;;;43.10;24.25;;;;;;;18.70;43.79;101257.27;2062240;86;33130;-68
2022/03/26 08:07:59;;;;;;;37.58;22.58;;;;;;;18.97;43.47;101250.41;2062380;86;29386;-71
2022/03/26 08:11:03;;;;;;;35.23;21.75;;;;;;;19.16;43.13;101254.08;2060119;85;27642;-69
2022/03/26 08:14:06;;;;;;;36.93;21.82;;;;;;;19.42;42.54;101259.02;2061445;85;28810;-69
2022/03/26 08:17:08;;;;;;;31.70;20.02;;;;;;;19.69;42.37;101258.48;2062011;86;31726;-68
2022/03/26 08:20:12;;;;;;;44.27;22.93;;;;;;;19.96;41.24;101254.73;2014000;88;33118;-71
2022/03/26 08:23:20;;;;;;;44.55;23.15;;;;;;;19.97;40.10;101253.75;2061017;85;29404;-67
2022/03/26 08:26:29;;;;;;;35.03;21.25;;;;;;;20.14;40.19;101262.00;2010341;88;27755;-70
2022/03/26 08:29:30;;;;;;;37.03;21.68;;;;;;;20.16;39.68;101255.95;2055692;85;28690;-68
2022/03/26 08:32:32;;;;;;;36.63;22.05;;;;;;;20.13;38.81;101259.78;2052704;86;31083;-67
2022/03/26 08:35:43;;;;;;;44.33;21.85;;;;;;;20.08;38.76;101251.09;2053031;86;32946;-68
2022/03/26 08:38:46;;;;;;;39.67;21.77;;;;;;;19.91;38.70;101249.64;2051359;86;29507;-69
2022/03/26 08:41:47;;;;;;;35.05;20.43;;;;;;;19.61;37.65;101248.64;2053069;86;27724;-68
2022/03/26 08:44:49;;;;;;;37.00;21.50;;;;;;;19.32;37.96;101240.75;2056892;86;29430;-69
2022/03/26 08:47:51;;;;;;;37.28;20.80;;;;;;;19.07;38.03;101249.27;2069878;86;32044;-68
2022/03/26 08:50:53;;;;;;;40.58;22.67;;;;;;;18.85;37.96;101232.23;2052692;86;33093;-68
2022/03/26 08:53:55;;;;;;;38.60;20.45;;;;;;;18.65;37.76;101223.63;2052247;86;29307;-69
2022/03/26 08:56:56;;;;;;;40.12;19.15;;;;;;;18.51;37.88;101226.80;2052875;86;27720;-69
2022/03/26 08:59:58;;;;;;;43.48;20.05;;;;;;;18.41;37.72;101222.11;2080012;85;28668;-69
2022/03/26 09:03:00;;;;;;;36.08;19.95;;;;;;;18.34;37.46;101226.61;2087331;85;31868;-70
2022/03/26 09:06:02;;;;;;;41.95;19.75;;;;;;;18.25;37.16;101219.58;2065504;85;32959;-70
2022/03/26 09:09:04;;;;;;;40.50;19.52;;;;;;;18.19;37.45;101217.66;2052833;86;29497;-69
2022/03/26 09:12:08;;;;;;;38.75;19.62;;;;;;;18.23;37.52;101210.17;2010744;88;27719;-69
2022/03/26 09:15:09;;;;;;;36.20;17.65;;;;;;;18.31;37.28;101224.10;2019701;88;28511;-66
2022/03/26 09:18:11;;;;;;;30.52;17.98;;;;;;;18.28;36.58;101205.81;2056054;85;31070;-68
2022/03/26 09:21:13;;;;;;;46.23;18.45;;;;;;;18.26;36.85;101215.90;2069929;85;33031;-67
2022/03/26 09:24:16;;;;;;;35.73;17.75;;;;;;;18.26;36.19;101214.54;2068036;84;28739;-68
2022/03/26 09:27:17;;;;;;;42.45;18.32;;;;;;;18.21;36.36;101221.14;2048769;86;27715;-68
2022/03/26 09:30:19;;;;;;;34.78;17.32;;;;;;;18.12;36.27;101205.97;2050293;85;29477;-67
2022/03/26 09:33:21;;;;;;;38.60;15.78;;;;;;;18.11;36.59;101209.18;2049795;86;32087;-68
2022/03/26 09:36:23;;;;;;;30.20;15.53;;;;;;;18.14;35.83;101201.31;2055021;86;32992;-68
2022/03/26 09:39:24;;;;;;;31.97;14.47;;;;;;;18.11;35.66;101213.25;2059825;86;30109;-70
2022/03/26 09:42:27;;;;;;;27.87;14.23;;;;;;;18.09;35.70;101202.98;2043354;85;27752;-67
2022/03/26 09:45:28;;;;;;;31.70;15.20;;;;;;;18.07;35.54;101197.64;2042158;86;28646;-68
2022/03/26 09:48:30;;;;;;;39.10;15.98;;;;;;;18.04;35.60;101196.98;2043320;86;31804;-68
2022/03/26 09:51:32;;;;;;;32.15;15.63;;;;;;;18.07;35.89;101196.80;2039494;85;33680;-69
2022/03/26 09:54:36;;;;;;;34.08;15.10;;;;;;;18.10;35.76;101188.45;2039718;86;30125;-68
2022/03/26 09:57:38;;;;;;;25.02;12.85;;;;;;;18.10;35.71;101181.68;2013620;87;27825;-67
2022/03/26 10:00:40;;;;;;;28.02;11.55;;;;;;;18.13;35.74;101177.38;2007724;88;28889;-69
2022/03/26 10:04:04;;;;;;;25.17;10.00;;;;;;;18.15;35.76;101178.14;2044339;86;31035;-67
2022/03/26 10:07:07;;;;;;;16.52;10.48;;;;;;;18.20;35.74;101181.93;2040392;86;32994;-67
2022/03/26 10:10:14;;;;;;;21.87;9.13;;;;;;;18.23;36.10;101180.34;2040980;86;30134;-66
2022/03/26 10:13:39;;;;;;;23.60;10.28;;;;;;;18.28;36.43;101178.19;2035472;86;27702;-67
2022/03/26 10:16:49;;;;;;;16.30;8.15;;;;;;;18.34;36.28;101171.00;2007898;88;29660;-66
2022/03/26 10:20:00;;;;;;;16.05;7.83;;;;;;;18.35;36.51;101175.45;2048384;86;31062;-66
2022/03/26 10:23:02;;;;;;;92.20;12.18;;;;;;;18.37;36.54;101178.90;2066416;86;33799;-68
2022/03/26 10:26:21;;;;;;;18.82;8.43;;;;;;;18.38;36.19;101175.72;2040694;85;29336;-66
2022/03/26 10:29:23;;;;;;;17.27;7.20;;;;;;;18.30;36.09;101176.25;1989215;88;27692;-69
2022/03/26 10:32:41;;;;;;;14.15;6.53;;;;;;;18.26;36.45;101176.06;2037677;87;28891;-67
2022/03/26 10:35:57;;;;;;;15.25;8.30;;;;;;;18.22;36.62;101174.06;2010949;87;31872;-66
2022/03/26 10:38:59;;;;;;;16.62;7.40;;;;;;;18.24;36.67;101176.66;2016326;87;32985;-66
2022/03/26 10:42:00;;;;;;;10.98;6.67;;;;;;;18.24;36.70;101174.44;2063972;86;28821;-67
2022/03/26 10:45:02;;;;;;;13.18;7.35;;;;;;;18.22;36.39;101165.03;2052959;86;27835;-70
2022/03/26 10:48:10;;;;;;;17.77;8.03;;;;;;;18.11;36.46;101167.62;2026438;87;28796;-69
2022/03/26 10:51:15;;;;;;;14.03;7.97;;;;;;;17.96;36.74;101171.72;2014645;86;31220;-68
2022/03/26 10:54:17;;;;;;;12.93;8.35;;;;;;;17.85;36.76;101175.64;2063854;86;33352;-69
2022/03/26 10:57:24;;;;;;;9.35;7.28;;;;;;;17.74;37.04;101182.62;2063888;85;29326;-68
2022/03/26 11:00:26;;;;;;;12.07;6.70;;;;;;;17.72;37.35;101180.48;2063544;86;27734;-70
2022/03/26 11:03:28;;;;;;;20.37;7.58;;;;;;;17.72;37.57;101171.00;2054030;86;29301;-68
2022/03/26 11:06:31;;;;;;;15.10;6.65;;;;;;;17.72;37.49;101180.48;2028707;87;31102;-67
2022/03/26 11:09:33;;;;;;;14.43;6.58;;;;;;;17.69;37.59;101167.17;2027574;87;32976;-67
2022/03/26 11:12:39;;;;;;;9.95;6.83;;;;;;;17.71;37.62;101165.70;2030813;86;29186;-68
2022/03/26 11:15:45;;;;;;;9.70;6.75;;;;;;;17.73;37.46;101164.62;2039497;86;27675;-70
2022/03/26 11:19:04;;;;;;;14.43;6.03;;;;;;;17.73;37.60;101159.70;2100941;84;28661;-69
2022/03/26 11:22:20;;;;;;;7.80;6.17;;;;;;;17.75;37.58;101146.41;2081996;84;31022;-68
2022/03/26 11:25:39;;;;;;;13.45;5.87;;;;;;;17.77;37.66;101132.28;2059022;86;33039;-68
2022/03/26 11:29:32;;;;;;;11.95;5.87;;;;;;;17.81;37.60;101129.38;2052039;86;29578;-68
2022/03/26 11:32:43;;;;;;;13.53;5.92;;;;;;;17.87;37.62;101139.81;1940521;91;27887;-67
2022/03/26 11:35:57;;;;;;;17.30;6.30;;;;;;;17.92;37.46;101138.53;1939953;91;29492;-67
2022/03/26 11:39:17;;;;;;;9.08;6.17;;;;;;;17.99;37.58;101127.28;1940906;91;30908;-68
2022/03/26 11:42:36;;;;;;;15.58;8.10;;;;;;;18.04;37.04;101127.34;1914494;91;33783;-67
2022/03/26 11:52:39;;;;;;;16.57;8.25;;;;;;;18.33;36.95;101120.91;1940448;91;29523;-69
2022/03/26 11:55:47;;;;;;;10.15;6.50;;;;;;;18.51;36.61;101119.62;1940863;91;32024;-72
2022/03/26 11:59:05;;;;;;;12.70;6.10;;;;;;;18.60;36.86;101107.25;1940891;91;32384;-67
2022/03/26 12:02:23;;;;;;;10.90;5.60;;;;;;;18.71;36.43;101101.53;1906716;91;29347;-66
2022/03/26 12:08:57;;;;;;;9.68;5.90;;;;;;;19.05;35.90;101099.14;1897708;93;29100;-71
2022/03/26 12:12:16;;;;;;;10.68;5.35;;;;;;;19.24;35.82;101091.89;1930763;92;31070;-69
2022/03/26 12:15:22;;;;;;;9.05;5.90;;;;;;;19.54;36.00;101084.64;1930676;92;32973;-66
2022/03/26 12:18:35;;;;;;;5.67;4.65;;;;;;;19.81;35.82;101084.03;1930829;92;29336;-66
2022/03/26 12:21:49;;;;;;;9.33;5.90;;;;;;;20.08;35.40;101085.66;1939411;91;27772;-70
2022/03/26 12:24:51;;;;;;;12.88;5.37;;;;;;;20.28;35.31;101074.06;1943442;90;28833;-72
2022/03/26 12:27:53;;;;;;;7.22;5.40;;;;;;;20.46;34.95;101074.48;1936265;90;31945;-74
2022/03/26 12:31:04;;;;;;;9.60;5.37;;;;;;;20.60;34.52;101081.53;1956766;90;33060;-71
2022/03/26 12:34:04;;;;;;;8.53;4.53;;;;;;;20.67;34.50;101067.45;1950505;90;30191;-69
2022/03/26 12:37:06;;;;;;;11.97;5.53;;;;;;;20.71;34.37;101070.30;1941247;91;27817;-66
2022/03/26 12:40:09;;;;;;;9.90;4.75;;;;;;;20.75;34.14;101068.59;1925506;91;28664;-72
2022/03/26 12:43:11;;;;;;;12.28;4.30;;;;;;;20.74;33.82;101071.42;2039852;86;31041;-67
2022/03/26 12:46:13;;;;;;;7.37;4.50;;;;;;;20.65;33.56;101067.58;2045862;86;33770;-70
2022/03/26 12:49:22;;;;;;;9.98;4.75;;;;;;;20.57;33.85;101064.11;2048311;86;29341;-69
2022/03/26 12:52:26;;;;;;;9.93;5.33;;;;;;;20.57;33.76;101064.59;2066020;86;27622;-68
2022/03/26 12:55:28;;;;;;;9.08;4.92;;;;;;;20.47;33.41;101065.81;2036027;87;28858;-68
2022/03/26 13:02:00;;;;;;;18.15;10.95;;;;;;;20.25;33.86;101061.20;2053708;86;33889;-73
2022/03/26 13:05:02;;;;;;;15.83;8.95;;;;;;;20.23;33.82;101062.70;2018213;87;30248;-68
2022/03/26 13:08:09;;;;;;;13.45;9.45;;;;;;;20.17;33.83;101065.41;1978813;89;27739;-70
2022/03/26 13:11:11;;;;;;;11.05;5.05;;;;;;;20.17;33.83;101071.33;1991121;89;28833;-68
2022/03/26 13:14:18;;;;;;;8.83;5.55;;;;;;;20.21;34.00;101063.31;2008889;88;31698;-73
2022/03/26 13:17:21;;;;;;;9.40;5.53;;;;;;;20.24;33.91;101060.83;2007331;88;33579;-70
2022/03/26 13:20:40;;;;;;;11.22;5.12;;;;;;;20.22;33.89;101055.52;1988054;89;29395;-66
2022/03/26 13:23:54;;;;;;;12.35;5.00;;;;;;;20.19;33.75;101055.25;2000035;88;27728;-66
2022/03/26 13:27:01;;;;;;;9.88;5.42;;;;;;;20.14;33.86;101056.60;2040625;86;29542;-67
2022/03/26 13:30:11;;;;;;;7.15;4.80;;;;;;;20.04;33.79;101050.53;2046513;85;32151;-67
2022/03/26 13:33:28;;;;;;;5.97;4.97;;;;;;;19.95;33.80;101047.66;2057311;85;33767;-66
2022/03/26 13:36:30;;;;;;;6.75;5.45;;;;;;;19.89;33.94;101048.50;2046279;86;29379;-69
2022/03/26 13:39:32;;;;;;;7.80;6.50;;;;;;;19.82;34.03;101049.06;2047985;86;27689;-71
2022/03/26 13:42:38;;;;;;;11.38;5.62;;;;;;;19.72;33.87;101047.06;2048235;86;29461;-67
2022/03/26 13:45:43;;;;;;;7.62;5.65;;;;;;;19.65;34.10;101049.00;2047115;86;31105;-69
2022/03/26 13:48:56;;;;;;;;;;;;;;;19.56;34.27;101039.70;1993688;88;33126;-66
2022/03/26 13:52:00;;;;;;;9.93;5.92;;;;;;;19.48;34.19;101046.19;2072614;85;29316;-69
2022/03/26 13:55:24;;;;;;;10.80;5.53;;;;;;;19.35;34.43;101047.63;2074426;85;27716;-69
2022/03/26 13:58:26;;;;;;;7.67;5.58;;;;;;;19.24;34.52;101045.70;2074545;85;28885;-71
2022/03/26 14:01:27;;;;;;;11.80;5.87;;;;;;;19.11;34.63;101049.81;2074412;85;31141;-71
2022/03/26 14:04:29;;;;;;;12.35;5.90;;;;;;;19.04;34.81;101051.23;2074440;85;32941;-70
2022/03/26 14:07:31;;;;;;;9.05;5.10;;;;;;;18.94;34.93;101051.92;2052073;85;30170;-69
2022/03/26 14:10:47;;;;;;;9.80;5.92;;;;;;;18.89;35.01;101060.00;2097901;84;27602;-72
2022/03/26 14:13:50;;;;;;;7.70;5.25;;;;;;;18.78;35.24;101059.41;2043323;87;28167;-67
2022/03/26 14:16:51;;;;;;;12.93;5.70;;;;;;;18.64;35.48;101061.75;2079933;85;31005;-67